Time;durP1;ratioP1;P1;durP2;ratioP2;P2;SDS_P1;SDS_P2;PMS_P1;PMS_P2;Temp;Humidity;BMP_temperature;BMP_pressure;BME280_temperature;BME280_humidity;BME280_pressure;Samples;Min_cycle;Max_cycle;Signal;HPM_P1;HPM_P2
2023/03/08 00:01:37;;;;;;;;;;;;;;;4.93;49.95;96463.03;5080924;28;19928;-58
2023/03/08 00:04:05;;;;;;;;;;;;;;;4.85;49.86;96461.09;5095032;28;19928;-58
2023/03/08 00:06:36;;;;;;;;;;;;;;;4.87;49.66;96467.75;5083451;28;20400;-58
2023/03/08 00:09:04;;;;;;;;;;;;;;;4.90;49.42;96469.00;5086579;28;19931;-58
2023/03/08 00:11:32;;;;;;;;;;;;;;;4.85;49.68;96455.72;5091029;28;20377;-59
2023/03/08 00:14:00;;;;;;;;;;;;;;;4.87;49.64;96465.06;5083475;28;20289;-58
2023/03/08 00:16:28;;;;;;;;;;;;;;;4.81;50.51;96469.00;5084374;28;19930;-59
2023/03/08 00:18:57;;;;;;;;;;;;;;;4.85;49.66;96463.78;5085061;28;19936;-59
2023/03/08 00:21:25;;;;;;;;;;;;;;;4.98;49.44;96469.06;5083582;28;20376;-58
2023/03/08 00:23:53;;;;;;;;;;;;;;;4.94;49.59;96472.69;5090505;28;20369;-57
2023/03/08 00:26:21;;;;;;;;;;;;;;;4.93;49.63;96473.78;5090527;28;20381;-58
2023/03/08 00:28:49;;;;;;;;;;;;;;;4.97;49.28;96475.56;5086057;28;19994;-58
2023/03/08 00:31:17;;;;;;;;;;;;;;;4.98;49.36;96465.59;5096415;28;19924;-58
2023/03/08 00:33:45;;;;;;;;;;;;;;;4.94;49.10;96472.69;5091990;28;19938;-57
2023/03/08 00:36:15;;;;;;;;;;;;;;;4.94;49.24;96472.69;5079861;28;20362;-57
2023/03/08 00:38:43;;;;;;;;;;;;;;;4.93;49.41;96474.56;5086293;28;20011;-57
2023/03/08 00:41:13;;;;;;;;;;;;;;;4.98;49.40;96473.66;5079937;28;19959;-57
2023/03/08 00:43:42;;;;;;;;;;;;;;;5.00;49.07;96474.13;5086862;28;20306;-57
2023/03/08 00:46:10;;;;;;;;;;;;;;;4.96;49.36;96473.19;5073975;28;19924;-57
2023/03/08 00:48:38;;;;;;;;;;;;;;;4.99;49.19;96480.63;5085246;28;19931;-57
2023/03/08 00:51:05;;;;;;;;;;;;;;;4.95;49.23;96479.66;5084062;28;19932;-57
2023/03/08 00:53:35;;;;;;;;;;;;;;;4.94;48.92;96472.69;5083452;28;19925;-57
2023/03/08 00:56:03;;;;;;;;;;;;;;;4.94;49.25;96475.38;5089543;28;20296;-57
2023/03/08 00:58:32;;;;;;;;;;;;;;;4.91;49.71;96476.00;5092135;28;20293;-57
2023/03/08 01:01:00;;;;;;;;;;;;;;;4.91;49.48;96476.00;5087628;28;19935;-62
2023/03/08 01:03:28;;;;;;;;;;;;;;;4.87;49.77;96470.44;5084806;28;19931;-57
2023/03/08 01:05:56;;;;;;;;;;;;;;;4.86;49.44;96476.13;5072799;28;19925;-57
2023/03/08 01:08:25;;;;;;;;;;;;;;;4.87;49.57;96467.75;5093418;28;19925;-57
2023/03/08 01:10:56;;;;;;;;;;;;;;;4.89;49.80;96462.03;5098041;28;19936;-57
2023/03/08 01:13:24;;;;;;;;;;;;;;;4.79;49.77;96470.38;5088392;28;19924;-58
2023/03/08 01:15:52;;;;;;;;;;;;;;;4.86;49.66;96465.38;5081767;28;20200;-57
2023/03/08 01:18:20;;;;;;;;;;;;;;;4.92;49.14;96474.91;5077073;28;20274;-57
2023/03/08 01:20:55;;;;;;;;;;;;;;;4.87;49.27;96472.34;5084340;28;19981;-57
2023/03/08 01:23:23;;;;;;;;;;;;;;;4.90;49.33;96477.09;5110873;28;19923;-57
2023/03/08 01:25:59;;;;;;;;;;;;;;;4.80;49.85;96472.00;5088810;28;19934;-57
2023/03/08 01:28:27;;;;;;;;;;;;;;;4.94;49.60;96475.38;5107109;28;19930;-57
2023/03/08 01:30:55;;;;;;;;;;;;;;;4.88;49.32;96474.72;5077155;28;19931;-57
2023/03/08 01:33:23;;;;;;;;;;;;;;;4.88;49.50;96482.78;5086855;28;19931;-57
2023/03/08 01:35:51;;;;;;;;;;;;;;;4.89;49.66;96486.25;5080175;28;20226;-57
2023/03/08 01:38:20;;;;;;;;;;;;;;;4.91;49.51;96486.78;5073533;28;19930;-57
2023/03/08 01:40:47;;;;;;;;;;;;;;;4.87;49.53;96480.41;5093387;28;20284;-57
2023/03/08 01:43:24;;;;;;;;;;;;;;;4.91;49.62;96478.69;5088089;28;20266;-57
2023/03/08 01:46:07;;;;;;;;;;;;;;;4.95;49.21;96474.25;5070858;28;19928;-57
2023/03/08 01:48:36;;;;;;;;;;;;;;;4.84;49.59;96471.03;5061529;28;19924;-57
2023/03/08 01:51:07;;;;;;;;;;;;;;;4.84;49.77;96473.72;5099489;28;20015;-57
2023/03/08 01:53:35;;;;;;;;;;;;;;;4.91;49.35;96462.56;5102743;28;19924;-58
2023/03/08 01:56:02;;;;;;;;;;;;;;;4.91;49.65;96462.56;5071308;28;19924;-57
2023/03/08 01:58:32;;;;;;;;;;;;;;;4.99;49.26;96459.88;5089759;28;19924;-57
2023/03/08 02:01:00;;;;;;;;;;;;;;;4.98;49.26;96463.69;5068682;28;19969;-57
2023/03/08 02:03:28;;;;;;;;;;;;;;;5.02;49.04;96469.25;5094691;28;20003;-58
2023/03/08 02:05:55;;;;;;;;;;;;;;;4.94;49.43;96467.28;5108716;28;19928;-57
2023/03/08 02:08:23;;;;;;;;;;;;;;;4.87;49.81;96461.56;5083103;28;19978;-58
2023/03/08 02:10:52;;;;;;;;;;;;;;;4.92;49.30;96464.13;5088218;28;20338;-57
2023/03/08 02:13:20;;;;;;;;;;;;;;;4.99;49.04;96459.09;5099923;28;20824;-57
2023/03/08 02:15:50;;;;;;;;;;;;;;;4.87;48.74;96456.97;5083976;28;19928;-58
2023/03/08 02:18:21;;;;;;;;;;;;;;;4.87;49.20;96450.81;5078048;28;20408;-57
2023/03/08 02:20:49;;;;;;;;;;;;;;;4.97;48.66;96454.03;5080821;28;20304;-57
2023/03/08 02:23:20;;;;;;;;;;;;;;;4.85;49.39;96447.66;5083119;28;20010;-57
2023/03/08 02:25:50;;;;;;;;;;;;;;;4.83;50.12;96449.84;5090417;28;19978;-57
2023/03/08 02:28:18;;;;;;;;;;;;;;;4.91;48.81;96451.78;5080937;28;19930;-65
2023/03/08 02:30:46;;;;;;;;;;;;;;;4.97;49.29;96445.16;5102418;28;20410;-58
2023/03/08 02:33:15;;;;;;;;;;;;;;;5.00;48.44;96450.69;5088381;28;19977;-57
2023/03/08 02:35:43;;;;;;;;;;;;;;;4.94;48.51;96445.78;5091839;28;20049;-57
2023/03/08 02:38:12;;;;;;;;;;;;;;;4.90;48.70;96456.38;5104429;28;19971;-57
2023/03/08 02:40:41;;;;;;;;;;;;;;;4.90;48.83;96447.47;5089868;28;19924;-59
2023/03/08 02:43:11;;;;;;;;;;;;;;;4.73;49.61;96440.13;5086609;28;19930;-57
2023/03/08 02:45:39;;;;;;;;;;;;;;;4.78;49.55;96436.50;5079165;28;19924;-64
2023/03/08 02:48:08;;;;;;;;;;;;;;;4.75;49.77;96439.84;5081947;28;19924;-57
2023/03/08 02:50:36;;;;;;;;;;;;;;;4.69;49.88;96444.56;5081947;28;20565;-58
2023/03/08 02:53:04;;;;;;;;;;;;;;;4.73;50.67;96442.81;5094467;28;19924;-61
2023/03/08 02:55:34;;;;;;;;;;;;;;;4.65;50.15;96439.00;5089830;28;20007;-58
2023/03/08 02:58:08;;;;;;;;;;;;;;;4.61;50.20;96446.09;5077916;28;19963;-58
2023/03/08 03:00:37;;;;;;;;;;;;;;;4.68;50.47;96453.72;5085224;28;20019;-58
2023/03/08 03:03:07;;;;;;;;;;;;;;;4.69;49.61;96449.94;5088307;28;19956;-57
2023/03/08 03:05:35;;;;;;;;;;;;;;;4.65;49.68;96449.75;5080044;28;19931;-58
2023/03/08 03:08:09;;;;;;;;;;;;;;;4.65;49.96;96446.28;5079709;28;19954;-57
2023/03/08 03:10:37;;;;;;;;;;;;;;;4.58;50.05;96449.41;5076798;28;19924;-57
2023/03/08 03:13:09;;;;;;;;;;;;;;;4.50;50.25;96447.44;5078667;28;19933;-58
2023/03/08 03:15:37;;;;;;;;;;;;;;;4.59;49.48;96437.53;5070526;28;20045;-57
2023/03/08 03:18:05;;;;;;;;;;;;;;;4.65;49.75;96438.22;5076937;28;20020;-58
2023/03/08 03:20:33;;;;;;;;;;;;;;;4.56;49.67;96435.47;5087449;28;19935;-58
2023/03/08 03:23:01;;;;;;;;;;;;;;;4.47;50.50;96432.75;5078631;28;19935;-57
2023/03/08 03:25:41;;;;;;;;;;;;;;;4.48;50.71;96438.91;5089304;28;19949;-57
2023/03/08 03:28:14;;;;;;;;;;;;;;;4.47;49.48;96432.75;5081805;28;19935;-57
2023/03/08 03:30:42;;;;;;;;;;;;;;;4.47;49.24;96431.91;5072533;28;19954;-57
2023/03/08 03:33:12;;;;;;;;;;;;;;;4.43;49.83;96425.59;5088059;28;19938;-57
2023/03/08 03:35:41;;;;;;;;;;;;;;;4.31;50.17;96422.66;5090086;28;19984;-57
2023/03/08 03:38:10;;;;;;;;;;;;;;;4.24;50.29;96416.94;5095756;28;19966;-58
2023/03/08 03:40:39;;;;;;;;;;;;;;;4.26;49.87;96409.34;5085676;28;19995;-57
2023/03/08 03:43:09;;;;;;;;;;;;;;;4.15;50.51;96414.97;5081041;28;19963;-57
2023/03/08 03:45:39;;;;;;;;;;;;;;;4.07;50.66;96420.28;5096605;28;19959;-57
2023/03/08 03:48:07;;;;;;;;;;;;;;;3.84;50.92;96424.88;5090822;28;20541;-57
2023/03/08 03:50:35;;;;;;;;;;;;;;;3.77;51.65;96419.09;5087637;28;19935;-59
2023/03/08 03:53:08;;;;;;;;;;;;;;;3.77;51.45;96416.41;5088661;28;20050;-57
2023/03/08 03:55:36;;;;;;;;;;;;;;;3.67;51.97;96418.25;5087051;28;19935;-57
2023/03/08 03:58:04;;;;;;;;;;;;;;;3.55;52.05;96423.34;5095194;28;19939;-57
2023/03/08 04:00:32;;;;;;;;;;;;;;;3.56;52.01;96419.56;5079435;28;19959;-57
2023/03/08 04:03:15;;;;;;;;;;;;;;;3.48;52.59;96417.59;5086525;28;19938;-57
2023/03/08 04:05:43;;;;;;;;;;;;;;;3.41;52.50;96418.03;5079073;28;20430;-58
2023/03/08 04:08:11;;;;;;;;;;;;;;;3.40;52.20;96415.63;5088240;28;19938;-57
2023/03/08 04:10:41;;;;;;;;;;;;;;;3.39;52.74;96408.66;5097750;28;19946;-57
2023/03/08 04:13:09;;;;;;;;;;;;;;;3.49;52.26;96418.41;5081708;28;19935;-57
2023/03/08 04:15:38;;;;;;;;;;;;;;;3.50;52.31;96410.03;5087898;28;19969;-58
2023/03/08 04:18:10;;;;;;;;;;;;;;;3.47;52.32;96413.34;5086780;28;19958;-58
2023/03/08 04:20:43;;;;;;;;;;;;;;;3.44;52.51;96413.13;5091613;28;19939;-57
2023/03/08 04:23:11;;;;;;;;;;;;;;;3.39;52.91;96414.03;5088268;28;19992;-57
2023/03/08 04:25:42;;;;;;;;;;;;;;;3.34;53.26;96414.94;5079288;28;19924;-57
2023/03/08 04:28:13;;;;;;;;;;;;;;;3.35;53.09;96419.19;5076730;28;20295;-57
2023/03/08 04:30:42;;;;;;;;;;;;;;;3.38;52.98;96407.09;5079220;28;19968;-58
2023/03/08 04:33:11;;;;;;;;;;;;;;;3.38;52.60;96409.75;5065521;28;19958;-57
2023/03/08 04:35:50;;;;;;;;;;;;;;;3.51;52.71;96398.19;5082218;28;19939;-57
2023/03/08 04:38:21;;;;;;;;;;;;;;;3.49;53.12;96395.03;5070549;28;19959;-57
2023/03/08 04:41:09;;;;;;;;;;;;;;;3.44;52.70;96391.66;5074425;28;19924;-57
2023/03/08 04:43:45;;;;;;;;;;;;;;;3.32;53.02;96379.56;5086501;28;19942;-57
2023/03/08 04:46:14;;;;;;;;;;;;;;;3.41;52.68;96385.81;5079360;28;19959;-58
2023/03/08 04:48:41;;;;;;;;;;;;;;;3.43;52.80;96377.44;5106040;28;19946;-57
2023/03/08 04:51:12;;;;;;;;;;;;;;;3.42;53.02;96375.84;5087117;28;19934;-58
2023/03/08 04:53:40;;;;;;;;;;;;;;;3.46;53.15;96376.81;5107798;28;20445;-57
2023/03/08 04:56:09;;;;;;;;;;;;;;;3.44;52.72;96368.28;5092119;28;19935;-57
2023/03/08 04:58:37;;;;;;;;;;;;;;;3.47;53.02;96362.31;5075772;28;19938;-58
2023/03/08 05:01:09;;;;;;;;;;;;;;;3.44;53.25;96362.91;5078701;28;19979;-57
2023/03/08 05:03:37;;;;;;;;;;;;;;;3.50;52.63;96367.06;5061583;28;19984;-57
2023/03/08 05:06:05;;;;;;;;;;;;;;;3.42;52.44;96359.75;5066952;28;19935;-57
2023/03/08 05:08:34;;;;;;;;;;;;;;;3.41;52.92;96368.91;5065301;28;19989;-57
2023/03/08 05:11:04;;;;;;;;;;;;;;;3.38;53.47;96364.13;5073976;28;19925;-57
2023/03/08 05:13:35;;;;;;;;;;;;;;;3.39;53.19;96357.66;5073399;28;20002;-57
2023/03/08 05:16:03;;;;;;;;;;;;;;;3.40;53.41;96351.97;5078671;28;19931;-57
2023/03/08 05:18:31;;;;;;;;;;;;;;;3.39;53.73;96352.28;5080950;28;19933;-57
2023/03/08 05:21:00;;;;;;;;;;;;;;;3.39;53.22;96346.94;5086629;28;20005;-57
2023/03/08 05:23:28;;;;;;;;;;;;;;;3.47;53.69;96340.06;5082263;28;19981;-57
2023/03/08 05:26:01;;;;;;;;;;;;;;;3.50;53.06;96332.16;5083521;28;19955;-58
2023/03/08 05:28:30;;;;;;;;;;;;;;;3.36;53.80;96329.53;5082110;28;19942;-57
2023/03/08 05:31:02;;;;;;;;;;;;;;;3.56;52.40;96327.47;5073099;28;19954;-57
2023/03/08 05:33:30;;;;;;;;;;;;;;;3.37;53.46;96335.72;5107997;28;19942;-57
2023/03/08 05:35:58;;;;;;;;;;;;;;;3.37;53.47;96335.72;5084152;28;21165;-58
2023/03/08 05:38:26;;;;;;;;;;;;;;;3.27;54.54;96334.03;5082029;28;19955;-57
2023/03/08 05:40:54;;;;;;;;;;;;;;;3.53;53.04;96328.88;5073502;28;19935;-58
2023/03/08 05:43:23;;;;;;;;;;;;;;;3.50;53.24;96326.78;5081392;28;19945;-57
2023/03/08 05:45:56;;;;;;;;;;;;;;;3.50;53.57;96320.63;5074890;28;19970;-57
2023/03/08 05:48:24;;;;;;;;;;;;;;;3.68;52.82;96328.53;5077082;28;19988;-57
2023/03/08 05:50:53;;;;;;;;;;;;;;;3.73;52.40;96326.78;5088574;28;19938;-58
2023/03/08 05:53:21;;;;;;;;;;;;;;;3.76;52.70;96331.56;5081955;28;19994;-58
2023/03/08 05:55:51;;;;;;;;;;;;;;;3.80;52.30;96337.94;5085954;28;20265;-57
2023/03/08 05:58:19;;;;;;;;;;;;;;;3.65;52.67;96325.66;5080847;28;19963;-58
2023/03/08 06:00:48;;;;;;;;;;;;;;;3.72;52.38;96327.91;5075261;28;19959;-57
2023/03/08 06:03:16;;;;;;;;;;;;;;;3.80;52.44;96335.25;5090721;28;19939;-58
2023/03/08 06:05:45;;;;;;;;;;;;;;;3.77;52.50;96339.31;5086117;28;19924;-58
2023/03/08 06:08:12;;;;;;;;;;;;;;;3.64;52.94;96346.34;5085054;28;19963;-57
2023/03/08 06:10:40;;;;;;;;;;;;;;;3.76;52.38;96347.69;5086333;28;19931;-57
2023/03/08 06:13:08;;;;;;;;;;;;;;;3.72;52.63;96346.69;5085236;28;19924;-57
2023/03/08 06:15:36;;;;;;;;;;;;;;;3.77;52.56;96346.59;5069749;28;19974;-58
2023/03/08 06:18:05;;;;;;;;;;;;;;;3.65;53.14;96358.66;5082259;28;19943;-57
2023/03/08 06:20:33;;;;;;;;;;;;;;;3.77;52.92;96354.63;5086919;28;19988;-58
2023/03/08 06:23:03;;;;;;;;;;;;;;;3.82;52.95;96362.56;5081200;28;19957;-58
2023/03/08 06:25:31;;;;;;;;;;;;;;;3.88;52.89;96364.03;5077002;28;19961;-57
2023/03/08 06:28:00;;;;;;;;;;;;;;;3.90;52.95;96353.78;5086647;28;19939;-58
2023/03/08 06:30:35;;;;;;;;;;;;;;;3.96;52.17;96349.88;5074976;28;19970;-58
2023/03/08 06:33:05;;;;;;;;;;;;;;;3.86;52.85;96347.44;5078047;28;19935;-57
2023/03/08 06:35:34;;;;;;;;;;;;;;;3.92;52.75;96340.84;5088713;28;19935;-57
2023/03/08 06:38:03;;;;;;;;;;;;;;;4.03;52.29;96334.13;5088815;28;19954;-57
2023/03/08 06:40:31;;;;;;;;;;;;;;;4.06;52.03;96338.88;5083296;28;19935;-61
2023/03/08 06:43:00;;;;;;;;;;;;;;;4.09;52.13;96337.47;5081700;28;19935;-56
2023/03/08 06:45:28;;;;;;;;;;;;;;;4.08;51.88;96339.34;5073999;28;20373;-56
2023/03/08 06:47:56;;;;;;;;;;;;;;;4.30;51.70;96343.09;5077672;28;19966;-56
2023/03/08 06:50:25;;;;;;;;;;;;;;;3.73;53.49;96337.53;5082400;28;19941;-56
2023/03/08 06:52:54;;;;;;;;;;;;;;;3.97;52.69;96332.66;5087473;28;19945;-57
2023/03/08 06:55:34;;;;;;;;;;;;;;;4.23;51.92;96335.50;5077791;28;19939;-58
2023/03/08 06:58:02;;;;;;;;;;;;;;;4.07;52.41;96337.78;5090107;28;19943;-56
2023/03/08 07:00:30;;;;;;;;;;;;;;;4.18;52.56;96333.72;5079085;28;19993;-57
2023/03/08 07:02:58;;;;;;;;;;;;;;;4.27;51.39;96335.69;5089030;28;19940;-56
2023/03/08 07:05:27;;;;;;;;;;;;;;;4.18;52.17;96343.69;5086556;28;20029;-56
2023/03/08 07:07:54;;;;;;;;;;;;;;;4.26;51.19;96334.88;5090744;28;19941;-56
2023/03/08 07:10:22;;;;;;;;;;;;;;;4.49;50.84;96338.31;5086845;28;19935;-56
2023/03/08 07:12:50;;;;;;;;;;;;;;;4.39;51.48;96335.88;5083631;28;19973;-56
2023/03/08 07:15:19;;;;;;;;;;;;;;;4.41;50.89;96337.16;5087452;28;19941;-56
2023/03/08 07:17:47;;;;;;;;;;;;;;;4.35;50.47;96337.59;5083981;28;20384;-56
2023/03/08 07:20:16;;;;;;;;;;;;;;;4.38;50.40;96342.38;5087792;28;19942;-56
2023/03/08 07:22:46;;;;;;;;;;;;;;;4.35;50.61;96326.84;5076669;28;19943;-57
2023/03/08 07:25:15;;;;;;;;;;;;;;;4.16;51.28;96341.31;5091817;28;19976;-57
2023/03/08 07:27:43;;;;;;;;;;;;;;;4.19;51.68;96327.25;5090732;28;19938;-56
2023/03/08 07:30:12;;;;;;;;;;;;;;;4.28;51.60;96326.50;5085481;28;19940;-56
2023/03/08 07:32:42;;;;;;;;;;;;;;;4.50;50.49;96325.66;5082794;28;19961;-57
2023/03/08 07:35:10;;;;;;;;;;;;;;;4.40;50.54;96329.41;5093195;28;19941;-56
2023/03/08 07:37:38;;;;;;;;;;;;;;;4.65;49.92;96326.03;5082739;28;20439;-56
2023/03/08 07:40:08;;;;;;;;;;;;;;;4.50;50.62;96336.41;5102427;28;20673;-57
2023/03/08 07:42:35;;;;;;;;;;;;;;;4.59;50.04;96340.72;5094372;28;19935;-59
2023/03/08 07:45:24;;;;;;;;;;;;;;;4.71;50.05;96327.47;5108778;28;20383;-56
2023/03/08 07:47:52;;;;;;;;;;;;;;;4.48;51.41;96320.59;5089563;28;20735;-56
2023/03/08 07:50:20;;;;;;;;;;;;;;;4.49;51.40;96321.38;5096737;28;19938;-57
2023/03/08 07:52:48;;;;;;;;;;;;;;;4.53;50.99;96312.38;5096585;28;20017;-56
2023/03/08 07:55:18;;;;;;;;;;;;;;;4.50;50.96;96318.38;5093239;28;20644;-56
2023/03/08 07:57:45;;;;;;;;;;;;;;;4.64;51.13;96313.69;5086561;28;19959;-56
2023/03/08 08:00:14;;;;;;;;;;;;;;;4.63;50.54;96330.91;5073886;28;19931;-56
2023/03/08 08:02:41;;;;;;;;;;;;;;;4.56;51.35;96333.25;5075901;28;19936;-56
2023/03/08 08:05:09;;;;;;;;;;;;;;;4.57;51.54;96337.53;5086010;28;19957;-56
2023/03/08 08:07:37;;;;;;;;;;;;;;;4.59;51.51;96329.97;5083374;28;19928;-56
2023/03/08 08:10:07;;;;;;;;;;;;;;;4.68;52.74;96333.44;5082968;28;20308;-55
2023/03/08 08:12:36;;;;;;;;;;;;;;;4.42;54.36;96335.25;5087043;28;19935;-57
2023/03/08 08:15:04;;;;;;;;;;;;;;;4.56;55.00;96330.56;5077933;28;19924;-61
2023/03/08 08:17:32;;;;;;;;;;;;;;;4.64;54.41;96327.13;5081912;28;19928;-65
2023/03/08 08:19:59;;;;;;;;;;;;;;;4.46;56.08;96334.31;5080113;28;19943;-56
2023/03/08 08:22:27;;;;;;;;;;;;;;;4.22;56.89;96333.13;5083769;28;19951;-55
2023/03/08 08:24:57;;;;;;;;;;;;;;;4.43;57.69;96326.09;5085485;28;20013;-55
2023/03/08 08:27:25;;;;;;;;;;;;;;;4.34;58.34;96318.00;5085622;28;19996;-59
2023/03/08 08:29:55;;;;;;;;;;;;;;;4.02;60.90;96312.94;5081844;28;19962;-57
2023/03/08 08:32:22;;;;;;;;;;;;;;;4.19;60.12;96288.81;5080903;28;19962;-56
2023/03/08 08:34:50;;;;;;;;;;;;;;;4.15;61.72;96275.19;5084089;28;19942;-55
2023/03/08 08:37:18;;;;;;;;;;;;;;;4.17;62.20;96282.97;5082189;28;19974;-56
2023/03/08 08:39:46;;;;;;;;;;;;;;;4.03;62.48;96277.69;5094913;28;19938;-54
2023/03/08 08:42:14;;;;;;;;;;;;;;;3.53;64.54;96269.81;5101940;28;19946;-55
2023/03/08 08:44:44;;;;;;;;;;;;;;;3.27;66.21;96266.16;5104330;28;19945;-55
2023/03/08 08:47:13;;;;;;;;;;;;;;;3.60;65.69;96264.81;5095225;28;19928;-56
2023/03/08 08:49:41;;;;;;;;;;;;;;;3.46;66.69;96256.00;5112690;28;19946;-55
2023/03/08 08:52:09;;;;;;;;;;;;;;;3.76;65.56;96254.47;5111727;28;19934;-55
2023/03/08 08:54:38;;;;;;;;;;;;;;;3.39;66.73;96245.72;5105992;28;20291;-56
2023/03/08 08:57:07;;;;;;;;;;;;;;;3.68;66.25;96245.28;5103235;28;19955;-56
2023/03/08 08:59:34;;;;;;;;;;;;;;;3.94;65.51;96221.22;5097705;28;19954;-56
2023/03/08 09:02:02;;;;;;;;;;;;;;;3.73;67.05;96211.31;5100370;28;19958;-55
2023/03/08 09:04:34;;;;;;;;;;;;;;;3.35;68.07;96214.41;5099542;28;19993;-56
2023/03/08 09:07:02;;;;;;;;;;;;;;;3.58;67.79;96207.94;5101909;28;20020;-58
2023/03/08 09:09:30;;;;;;;;;;;;;;;3.13;69.94;96218.69;5098903;28;20326;-55
2023/03/08 09:11:57;;;;;;;;;;;;;;;3.65;69.03;96199.44;5098699;28;19943;-55
2023/03/08 09:14:25;;;;;;;;;;;;;;;3.54;69.57;96196.22;5118439;27;19971;-63
2023/03/08 09:16:53;;;;;;;;;;;;;;;3.82;68.71;96191.44;5097586;28;19966;-55
2023/03/08 09:19:21;;;;;;;;;;;;;;;4.13;67.54;96183.34;5098349;28;19934;-55
2023/03/08 09:21:50;;;;;;;;;;;;;;;4.00;67.82;96173.53;5096617;28;19924;-56
2023/03/08 09:24:18;;;;;;;;;;;;;;;4.02;68.21;96163.25;5106722;28;19924;-56
2023/03/08 09:26:46;;;;;;;;;;;;;;;4.21;67.58;96157.63;5109885;28;19984;-56
2023/03/08 09:29:14;;;;;;;;;;;;;;;4.22;68.23;96148.44;5109849;28;19941;-57
2023/03/08 09:31:44;;;;;;;;;;;;;;;4.30;68.69;96141.47;5093389;28;19961;-56
2023/03/08 09:34:13;;;;;;;;;;;;;;;4.19;68.26;96136.41;5104885;28;20414;-55
2023/03/08 09:36:41;;;;;;;;;;;;;;;4.23;68.61;96136.56;5104748;28;19938;-57
2023/03/08 09:39:11;;;;;;;;;;;;;;;4.25;69.38;96128.97;5104969;28;19962;-55
2023/03/08 09:41:57;;;;;;;;;;;;;;;4.10;69.67;96118.69;5104521;28;20465;-55
2023/03/08 09:44:31;;;;;;;;;;;;;;;3.92;70.80;96120.53;5104430;28;19988;-56
2023/03/08 09:46:59;;;;;;;;;;;;;;;3.93;71.19;96103.31;5094383;28;19962;-58
2023/03/08 09:49:28;;;;;;;;;;;;;;;3.80;72.20;96091.59;5103514;28;19938;-56
2023/03/08 09:51:58;;;;;;;;;;;;;;;3.75;72.50;96093.63;5108700;28;19938;-56
2023/03/08 09:54:27;;;;;;;;;;;;;;;3.31;74.46;96087.31;5104199;28;19934;-56
2023/03/08 09:56:55;;;;;;;;;;;;;;;3.60;73.76;96074.16;5100750;28;19945;-55
2023/03/08 09:59:24;;;;;;;;;;;;;;;3.64;73.95;96068.97;5107546;28;19934;-55
2023/03/08 10:01:54;;;;;;;;;;;;;;;3.30;75.21;96066.91;5091295;28;19959;-55
2023/03/08 10:04:36;;;;;;;;;;;;;;;3.47;74.75;96050.13;5094277;28;19939;-55
2023/03/08 10:07:08;;;;;;;;;;;;;;;3.25;75.20;96043.72;5103529;28;19958;-55
2023/03/08 10:09:40;;;;;;;;;;;;;;;3.11;76.45;96037.66;5102877;28;19924;-55
2023/03/08 10:12:11;;;;;;;;;;;;;;;3.14;77.19;96031.66;5105449;28;20404;-54
2023/03/08 10:14:40;;;;;;;;;;;;;;;3.32;75.52;96022.56;5101915;28;19925;-56
2023/03/08 10:17:10;;;;;;;;;;;;;;;3.38;76.35;96021.34;5101821;28;19969;-54
2023/03/08 10:19:38;;;;;;;;;;;;;;;3.61;75.28;96027.38;5102315;28;20381;-55
2023/03/08 10:22:09;;;;;;;;;;;;;;;3.60;74.91;96022.34;5109655;28;19969;-55
2023/03/08 10:24:39;;;;;;;;;;;;;;;3.66;74.77;96024.56;5105152;28;20621;-55
2023/03/08 10:27:10;;;;;;;;;;;;;;;3.74;74.50;96025.69;5104514;28;19931;-55
2023/03/08 10:29:39;;;;;;;;;;;;;;;3.21;76.43;96015.91;5096825;28;19941;-57
2023/03/08 10:32:09;;;;;;;;;;;;;;;3.56;75.66;96011.44;5081739;28;19931;-55
2023/03/08 10:34:37;;;;;;;;;;;;;;;3.63;75.29;96006.41;5103320;28;19932;-55
2023/03/08 10:37:06;;;;;;;;;;;;;;;3.19;76.59;96002.00;5098478;28;20270;-58
2023/03/08 10:39:35;;;;;;;;;;;;;;;3.25;76.67;95997.28;5104054;28;19935;-55
2023/03/08 10:42:13;;;;;;;;;;;;;;;3.41;76.40;96014.56;5088600;28;19931;-55
2023/03/08 10:44:44;;;;;;;;;;;;;;;3.66;75.30;96005.75;5096080;28;19938;-56
2023/03/08 10:47:18;;;;;;;;;;;;;;;3.47;75.78;95997.22;5093179;28;19939;-56
2023/03/08 10:49:46;;;;;;;;;;;;;;;3.06;77.21;95995.63;5088531;28;20304;-56
2023/03/08 10:52:20;;;;;;;;;;;;;;;3.51;76.48;95997.34;5103995;28;19928;-55
2023/03/08 10:54:59;;;;;;;;;;;;;;;3.50;76.69;95987.72;5107476;28;19924;-55
2023/03/08 10:57:28;;;;;;;;;;;;;;;3.35;77.19;95992.41;5108880;28;19950;-55
2023/03/08 10:59:57;;;;;;;;;;;;;;;3.59;76.66;95996.59;5102372;28;19928;-57
2023/03/08 11:02:25;;;;;;;;;;;;;;;3.60;76.35;95985.53;5094327;28;20295;-56
2023/03/08 11:04:54;;;;;;;;;;;;;;;3.84;75.90;95989.69;5098192;28;19935;-55
2023/03/08 11:07:23;;;;;;;;;;;;;;;3.82;75.95;95987.31;5102224;28;19938;-57
2023/03/08 11:09:52;;;;;;;;;;;;;;;3.79;76.16;95982.56;5085667;28;19927;-57
2023/03/08 11:12:23;;;;;;;;;;;;;;;3.80;76.04;95986.06;5091321;28;20478;-57
2023/03/08 11:14:53;;;;;;;;;;;;;;;3.94;75.36;95981.31;5099555;28;19985;-57
2023/03/08 11:17:22;;;;;;;;;;;;;;;3.85;76.14;95983.22;5097965;28;19924;-56
2023/03/08 11:19:58;;;;;;;;;;;;;;;3.80;76.55;95970.72;5082400;28;19924;-56
2023/03/08 11:22:32;;;;;;;;;;;;;;;3.65;77.40;95965.81;5098891;28;19969;-56
2023/03/08 11:25:03;;;;;;;;;;;;;;;3.77;77.58;95963.28;5086456;28;19924;-56
2023/03/08 11:27:38;;;;;;;;;;;;;;;3.98;76.64;95965.34;5111417;28;20015;-56
2023/03/08 11:30:12;;;;;;;;;;;;;;;4.02;76.73;95964.41;5098151;28;19927;-56
2023/03/08 11:32:43;;;;;;;;;;;;;;;3.99;76.81;95954.28;5089618;28;19985;-56
2023/03/08 11:35:12;;;;;;;;;;;;;;;4.14;76.62;95956.50;5086250;28;19924;-56
2023/03/08 11:37:43;;;;;;;;;;;;;;;3.99;76.68;95956.97;5083739;28;19929;-56
2023/03/08 11:40:21;;;;;;;;;;;;;;;4.12;76.73;95949.88;5071104;28;19947;-58
2023/03/08 11:42:52;;;;;;;;;;;;;;;4.06;76.88;95943.06;5070777;28;19935;-56
2023/03/08 11:45:23;;;;;;;;;;;;;;;4.08;76.87;95941.63;5067710;28;19924;-57
2023/03/08 11:47:55;;;;;;;;;;;;;;;4.26;75.92;95937.06;5073610;28;19931;-57
2023/03/08 11:50:23;;;;;;;;;;;;;;;4.36;76.33;95935.91;5073079;28;19924;-56
2023/03/08 11:53:01;;;;;;;;;;;;;;;4.14;77.66;95934.19;5069640;28;19924;-57
2023/03/08 11:55:33;;;;;;;;;;;;;;;4.39;76.71;95930.69;5047574;28;19924;-56
2023/03/08 11:58:01;;;;;;;;;;;;;;;4.36;76.45;95925.16;5072181;28;19936;-56
2023/03/08 12:00:33;;;;;;;;;;;;;;;4.52;76.27;95926.22;5066193;28;20271;-56
2023/03/08 12:03:01;;;;;;;;;;;;;;;4.53;76.49;95919.75;5092869;28;19928;-57
2023/03/08 12:05:30;;;;;;;;;;;;;;;4.10;76.91;95915.25;5089765;28;19932;-56
2023/03/08 12:08:00;;;;;;;;;;;;;;;4.38;76.97;95910.28;5080572;28;19931;-56
2023/03/08 12:10:28;;;;;;;;;;;;;;;4.17;77.20;95904.81;5080537;28;19924;-56
2023/03/08 12:12:57;;;;;;;;;;;;;;;4.35;77.44;95896.69;5072425;28;19933;-56
2023/03/08 12:15:27;;;;;;;;;;;;;;;4.52;77.58;95887.78;5067875;28;20289;-57
2023/03/08 12:17:59;;;;;;;;;;;;;;;4.64;76.98;95882.53;5081076;28;19985;-57
2023/03/08 12:20:27;;;;;;;;;;;;;;;4.53;76.97;95882.13;5092502;28;19924;-57
2023/03/08 12:22:57;;;;;;;;;;;;;;;4.46;77.93;95879.09;5084883;28;20292;-56
2023/03/08 12:25:26;;;;;;;;;;;;;;;4.20;78.56;95873.78;5087767;28;19924;-56
2023/03/08 12:27:55;;;;;;;;;;;;;;;4.44;78.45;95875.97;5086144;28;19924;-57
2023/03/08 12:30:26;;;;;;;;;;;;;;;4.66;78.07;95859.59;5076329;28;19932;-56
2023/03/08 12:32:55;;;;;;;;;;;;;;;4.72;77.81;95868.25;5076464;28;19925;-56
2023/03/08 12:35:28;;;;;;;;;;;;;;;4.52;77.97;95859.00;5078902;28;19931;-56
2023/03/08 12:37:56;;;;;;;;;;;;;;;4.78;77.50;95866.19;5088245;28;19977;-56
2023/03/08 12:40:39;;;;;;;;;;;;;;;4.71;78.04;95856.72;5110058;28;20141;-58
2023/03/08 12:43:09;;;;;;;;;;;;;;;4.82;77.86;95857.13;5092496;28;19936;-56
2023/03/08 12:45:37;;;;;;;;;;;;;;;4.76;78.54;95857.66;5092381;28;19962;-57
2023/03/08 12:48:09;;;;;;;;;;;;;;;4.92;77.79;95845.22;5099610;28;19942;-56
2023/03/08 12:50:41;;;;;;;;;;;;;;;4.97;77.79;95847.72;5103487;28;19999;-60
2023/03/08 12:53:24;;;;;;;;;;;;;;;4.87;78.20;95843.50;5106160;28;19958;-56
2023/03/08 12:56:01;;;;;;;;;;;;;;;4.85;79.40;95836.88;5108970;28;19977;-56
2023/03/08 12:58:30;;;;;;;;;;;;;;;4.64;80.56;95821.47;5108102;28;19974;-56
2023/03/08 13:00:58;;;;;;;;;;;;;;;4.94;79.73;95832.22;5104095;28;19988;-56
2023/03/08 13:03:26;;;;;;;;;;;;;;;5.07;78.81;95841.19;5095879;28;20186;-56
2023/03/08 13:05:56;;;;;;;;;;;;;;;4.89;80.10;95824.34;5108350;28;19935;-57
2023/03/08 13:08:27;;;;;;;;;;;;;;;5.11;80.16;95815.97;5102811;28;19958;-59
2023/03/08 13:11:00;;;;;;;;;;;;;;;4.81;80.85;95799.06;5099262;28;19954;-55